createdAt,value
2023-03-26T00:02:10.252Z,13
2023-03-26T00:04:58.069Z,10
2023-03-26T00:07:46.003Z,9
2023-03-26T00:10:33.823Z,0
2023-03-26T00:13:21.704Z,10
2023-03-26T00:16:09.480Z,6
2023-03-26T00:18:57.662Z,18
2023-03-26T00:21:45.462Z,15
2023-03-26T00:24:33.449Z,0
2023-03-26T00:27:21.218Z,11
2023-03-26T00:30:09.268Z,19
2023-03-26T00:32:56.980Z,15
2023-03-26T00:35:44.725Z,15
2023-03-26T00:38:32.550Z,11
2023-03-26T00:41:20.365Z,2
2023-03-26T00:44:07.988Z,12
2023-03-26T00:46:55.822Z,12
2023-03-26T00:49:43.766Z,12
2023-03-26T00:52:31.556Z,12
2023-03-26T00:55:19.253Z,16
2023-03-26T00:58:07.163Z,12
2023-03-26T01:00:54.894Z,14
2023-03-26T01:03:47.933Z,15
2023-03-26T01:06:41.146Z,12
2023-03-26T01:09:28.839Z,13
2023-03-26T01:12:16.646Z,4
2023-03-26T01:15:04.489Z,6
2023-03-26T01:17:52.412Z,8
2023-03-26T01:20:40.345Z,6
2023-03-26T01:23:27.921Z,16
2023-03-26T01:26:15.752Z,3
2023-03-26T01:29:06.529Z,14
2023-03-26T01:31:54.488Z,13
2023-03-26T01:34:42.550Z,10
2023-03-26T01:37:30.358Z,0
2023-03-26T01:40:18.367Z,12
2023-03-26T01:43:06.138Z,11
2023-03-26T01:45:53.993Z,9
2023-03-26T01:48:42.106Z,15
2023-03-26T01:51:29.787Z,13
2023-03-26T01:54:17.725Z,6
2023-03-26T01:57:05.480Z,10
2023-03-26T01:59:53.288Z,12
2023-03-26T02:02:40.995Z,11
2023-03-26T02:05:29.113Z,16
2023-03-26T02:08:16.898Z,12
2023-03-26T02:11:04.783Z,9
2023-03-26T02:13:55.688Z,16
2023-03-26T02:16:43.512Z,14
2023-03-26T02:19:31.497Z,8
2023-03-26T02:22:19.495Z,13
2023-03-26T02:25:07.189Z,6
2023-03-26T02:27:55.010Z,11
2023-03-26T02:30:42.774Z,22
2023-03-26T02:33:30.780Z,4
2023-03-26T02:36:18.649Z,0
2023-03-26T02:39:06.706Z,13
2023-03-26T02:41:54.294Z,8
2023-03-26T02:44:42.141Z,12
2023-03-26T02:47:29.766Z,8
2023-03-26T02:50:17.772Z,0
2023-03-26T02:53:05.593Z,11
2023-03-26T02:55:53.645Z,13
2023-03-26T02:58:41.445Z,10
2023-03-26T03:01:29.146Z,9
2023-03-26T03:04:17.059Z,9
2023-03-26T03:07:04.805Z,9
2023-03-26T03:09:52.700Z,0
2023-03-26T03:12:40.559Z,12
2023-03-26T03:15:28.227Z,12
2023-03-26T03:18:16.903Z,9
2023-03-26T03:21:04.540Z,8
2023-03-26T03:23:52.217Z,13
2023-03-26T03:26:39.884Z,11
2023-03-26T03:29:27.783Z,10
2023-03-26T03:32:15.467Z,13
2023-03-26T03:35:03.560Z,13
2023-03-26T03:37:51.439Z,13
2023-03-26T03:40:39.222Z,9
2023-03-26T03:43:26.897Z,8
2023-03-26T03:46:14.758Z,8
2023-03-26T03:49:02.823Z,13
2023-03-26T03:51:50.507Z,8
2023-03-26T03:54:38.164Z,12
2023-03-26T03:57:25.913Z,8
2023-03-26T04:00:13.593Z,13
2023-03-26T04:03:01.309Z,11
2023-03-26T04:05:54.313Z,0
2023-03-26T04:08:42.150Z,0
2023-03-26T04:11:29.953Z,11
2023-03-26T04:14:17.658Z,1
2023-03-26T04:17:05.572Z,13
2023-03-26T04:19:53.861Z,6
2023-03-26T04:22:41.494Z,8
2023-03-26T04:25:29.281Z,7
2023-03-26T04:28:17.318Z,9
2023-03-26T04:31:05.113Z,17
2023-03-26T04:33:53.058Z,1
2023-03-26T04:36:40.828Z,12
2023-03-26T04:39:28.381Z,5
2023-03-26T04:42:16.181Z,15
2023-03-26T04:45:03.755Z,19
2023-03-26T04:47:51.561Z,24
2023-03-26T04:50:39.200Z,8
2023-03-26T04:53:27.159Z,22
2023-03-26T04:56:14.841Z,23
2023-03-26T04:59:02.732Z,30
2023-03-26T05:01:50.360Z,29
2023-03-26T05:04:37.951Z,45
2023-03-26T05:07:25.795Z,74
2023-03-26T05:10:13.499Z,98
2023-03-26T05:13:01.184Z,131
2023-03-26T05:15:48.982Z,186
2023-03-26T05:18:36.746Z,216
2023-03-26T05:21:24.475Z,251
2023-03-26T05:24:12.408Z,300
2023-03-26T05:27:00.151Z,333
2023-03-26T05:29:47.830Z,347
2023-03-26T05:32:35.584Z,395
2023-03-26T05:35:23.673Z,422
2023-03-26T05:38:11.571Z,439
2023-03-26T05:40:59.311Z,473
2023-03-26T05:43:46.997Z,520
2023-03-26T05:46:34.751Z,546
2023-03-26T05:49:22.517Z,587
2023-03-26T05:52:10.297Z,635
2023-03-26T05:54:58.038Z,664
2023-03-26T05:57:45.829Z,712
2023-03-26T06:00:33.574Z,737
2023-03-26T06:03:21.293Z,765
2023-03-26T06:06:09.546Z,771
2023-03-26T06:09:01.193Z,775
2023-03-26T06:11:50.525Z,762
2023-03-26T06:14:38.301Z,771
2023-03-26T06:17:26.049Z,771
2023-03-26T06:20:13.815Z,780
2023-03-26T06:23:01.668Z,797
2023-03-26T06:25:49.482Z,801
2023-03-26T06:28:37.524Z,831
2023-03-26T06:31:25.449Z,849
2023-03-26T06:34:13.456Z,859
2023-03-26T06:37:01.227Z,868
2023-03-26T06:39:48.944Z,886
2023-03-26T06:43:07.207Z,876
2023-03-26T06:45:57.401Z,869
2023-03-26T06:48:45.523Z,870
2023-03-26T06:51:33.376Z,875
2023-03-26T06:54:21.108Z,871
2023-03-26T06:57:08.987Z,864
2023-03-26T06:59:56.733Z,860
2023-03-26T07:02:44.592Z,871
2023-03-26T07:05:32.575Z,863
2023-03-26T07:08:20.394Z,860
2023-03-26T07:11:08.167Z,875
2023-03-26T07:13:55.907Z,888
2023-03-26T07:16:43.667Z,891
2023-03-26T07:19:31.528Z,890
2023-03-26T07:22:19.273Z,880
2023-03-26T07:25:07.135Z,892
2023-03-26T07:27:55.275Z,892
2023-03-26T07:30:43.161Z,905
2023-03-26T07:33:31.051Z,903
2023-03-26T07:36:18.882Z,897
2023-03-26T07:39:06.691Z,895
2023-03-26T07:41:54.550Z,901
2023-03-26T07:44:42.290Z,914
2023-03-26T07:47:30.114Z,911
2023-03-26T07:50:18.376Z,918
2023-03-26T07:53:06.858Z,917
2023-03-26T07:55:54.719Z,927
2023-03-26T07:58:42.779Z,925
2023-03-26T08:01:30.411Z,918
2023-03-26T08:04:23.099Z,929
2023-03-26T08:07:13.578Z,924
2023-03-26T08:10:01.287Z,931
2023-03-26T08:12:49.092Z,929
2023-03-26T08:15:36.986Z,936
2023-03-26T08:18:25.149Z,941
2023-03-26T08:21:12.878Z,934
2023-03-26T08:24:00.576Z,941
2023-03-26T08:26:48.499Z,943
2023-03-26T08:29:36.206Z,932
2023-03-26T08:32:24.248Z,928
2023-03-26T08:35:12.305Z,917
2023-03-26T08:38:00.243Z,920
2023-03-26T08:40:47.928Z,933
2023-03-26T08:43:35.968Z,905
2023-03-26T08:46:24.029Z,886
2023-03-26T08:49:12.115Z,886
2023-03-26T08:51:59.930Z,893
2023-03-26T08:54:47.811Z,897
2023-03-26T08:57:35.544Z,888
2023-03-26T09:00:23.331Z,877
2023-03-26T09:03:11.425Z,875
2023-03-26T09:05:59.373Z,895
2023-03-26T09:08:54.035Z,900
2023-03-26T09:11:42.559Z,905
2023-03-26T09:14:30.363Z,904
2023-03-26T09:17:18.270Z,913
2023-03-26T09:20:06.298Z,909
2023-03-26T09:22:54.154Z,884
2023-03-26T09:25:41.843Z,878
2023-03-26T09:28:29.616Z,891
2023-03-26T09:31:17.372Z,923
2023-03-26T09:34:05.639Z,918
2023-03-26T09:36:53.556Z,919
2023-03-26T09:39:41.462Z,939
2023-03-26T09:42:29.143Z,943
2023-03-26T09:45:17.045Z,952
2023-03-26T09:48:04.974Z,947
2023-03-26T09:50:52.945Z,943
2023-03-26T09:53:40.751Z,929
2023-03-26T09:56:28.732Z,946
2023-03-26T09:59:16.506Z,934
2023-03-26T10:02:04.441Z,908
2023-03-26T10:05:07.246Z,919
2023-03-26T10:07:55.162Z,946
2023-03-26T10:10:42.918Z,952
2023-03-26T10:13:30.885Z,955
2023-03-26T10:16:18.885Z,956
2023-03-26T10:19:06.963Z,948
2023-03-26T10:21:54.701Z,951
2023-03-26T10:24:42.680Z,959
2023-03-26T10:27:30.552Z,956
2023-03-26T10:30:18.462Z,962
2023-03-26T10:33:06.356Z,960
2023-03-26T10:35:54.184Z,973
2023-03-26T10:38:42.230Z,954
2023-03-26T10:41:59.236Z,951
2023-03-26T10:44:47.035Z,946
2023-03-26T10:47:34.964Z,943
2023-03-26T10:50:23.780Z,939
2023-03-26T10:53:12.357Z,947
2023-03-26T10:56:00.085Z,952
2023-03-26T10:58:49.816Z,951
2023-03-26T11:01:38.084Z,943
2023-03-26T11:04:26.155Z,947
2023-03-26T11:07:13.884Z,967
2023-03-26T11:10:01.879Z,963
2023-03-26T11:12:49.771Z,963
2023-03-26T11:15:37.672Z,962
2023-03-26T11:18:25.825Z,965
2023-03-26T11:21:18.239Z,973
2023-03-26T11:24:07.308Z,974
2023-03-26T11:26:55.292Z,971
2023-03-26T11:29:46.043Z,977
2023-03-26T11:32:33.928Z,971
2023-03-26T11:35:40.030Z,970
2023-03-26T11:38:29.508Z,981
2023-03-26T11:41:22.683Z,986
2023-03-26T11:44:11.170Z,986
2023-03-26T11:46:59.123Z,981
2023-03-26T11:49:47.094Z,982
2023-03-26T11:52:35.013Z,977
2023-03-26T11:55:23.024Z,981
2023-03-26T11:58:11.232Z,981
2023-03-26T12:00:59.156Z,988
2023-03-26T12:03:46.978Z,982
2023-03-26T12:06:34.799Z,993
2023-03-26T12:09:22.624Z,991
2023-03-26T12:12:10.543Z,988
2023-03-26T12:14:58.367Z,989
2023-03-26T12:17:46.105Z,984
2023-03-26T12:20:34.065Z,993
2023-03-26T12:23:21.724Z,987
2023-03-26T12:26:09.567Z,981
2023-03-26T12:28:57.286Z,986
2023-03-26T12:31:44.943Z,986
2023-03-26T12:34:32.847Z,982
2023-03-26T12:37:20.527Z,979
2023-03-26T12:40:12.140Z,991
2023-03-26T12:44:45.803Z,983
2023-03-26T12:47:59.605Z,983
2023-03-26T12:50:51.135Z,989
2023-03-26T12:53:38.804Z,988
2023-03-26T12:56:26.542Z,991
2023-03-26T12:59:32.839Z,983
2023-03-26T13:02:20.984Z,989
2023-03-26T13:05:09.146Z,1000
2023-03-26T13:07:56.837Z,1000
2023-03-26T13:10:44.561Z,997
2023-03-26T13:13:32.391Z,994
2023-03-26T13:16:20.165Z,988
2023-03-26T13:19:08.248Z,988
2023-03-26T13:21:56.049Z,985
2023-03-26T13:24:43.780Z,986
2023-03-26T13:27:31.436Z,983
2023-03-26T13:30:19.151Z,983
2023-03-26T13:33:07.043Z,969
2023-03-26T13:36:00.781Z,982
2023-03-26T13:38:58.512Z,988
2023-03-26T13:41:47.281Z,980
2023-03-26T13:44:34.956Z,979
2023-03-26T13:47:25.602Z,971
2023-03-26T13:50:13.453Z,980
2023-03-26T13:53:01.132Z,980
2023-03-26T13:55:48.967Z,974
2023-03-26T13:58:36.791Z,953
2023-03-26T14:01:24.395Z,955
2023-03-26T14:04:12.488Z,941
2023-03-26T14:07:00.257Z,935
2023-03-26T14:09:47.823Z,929
2023-03-26T14:12:35.813Z,919
2023-03-26T14:15:23.642Z,908
2023-03-26T14:18:11.306Z,929
2023-03-26T14:20:59.093Z,919
2023-03-26T14:23:46.980Z,946
2023-03-26T14:26:34.890Z,956
2023-03-26T14:29:22.661Z,953
2023-03-26T14:32:24.350Z,955
2023-03-26T14:35:12.793Z,957
2023-03-26T14:38:00.506Z,957
2023-03-26T14:40:48.211Z,975
2023-03-26T14:43:36.067Z,957
2023-03-26T14:46:23.948Z,962
2023-03-26T14:49:12.200Z,957
2023-03-26T14:51:59.942Z,956
2023-03-26T14:54:47.609Z,956
2023-03-26T14:57:35.314Z,952
2023-03-26T15:00:23.282Z,944
2023-03-26T15:03:11.130Z,928
2023-03-26T15:05:58.843Z,914
2023-03-26T15:08:46.476Z,888
2023-03-26T15:11:34.362Z,873
2023-03-26T15:14:33.056Z,903
2023-03-26T15:17:20.981Z,915
2023-03-26T15:20:08.974Z,899
2023-03-26T15:22:56.838Z,888
2023-03-26T15:25:44.472Z,895
2023-03-26T15:28:32.375Z,908
2023-03-26T15:31:20.245Z,919
2023-03-26T15:34:08.110Z,920
2023-03-26T15:36:55.723Z,933
2023-03-26T15:39:43.534Z,916
2023-03-26T15:42:47.141Z,932
2023-03-26T15:45:35.004Z,941
2023-03-26T15:48:23.169Z,945
2023-03-26T15:51:10.969Z,945
2023-03-26T15:54:07.201Z,946
2023-03-26T15:56:55.197Z,914
2023-03-26T15:59:42.972Z,864
2023-03-26T16:02:30.759Z,885
2023-03-26T16:05:18.841Z,897
2023-03-26T16:08:06.678Z,856
2023-03-26T16:10:58.475Z,882
2023-03-26T16:13:46.547Z,914
2023-03-26T16:16:34.589Z,911
2023-03-26T16:19:22.372Z,918
2023-03-26T16:22:10.261Z,913
2023-03-26T16:25:26.493Z,894
2023-03-26T16:28:16.643Z,893
2023-03-26T16:31:04.651Z,890
2023-03-26T16:34:11.522Z,881
2023-03-26T16:37:01.653Z,870
2023-03-26T16:39:49.420Z,860
2023-03-26T16:42:37.375Z,842
2023-03-26T16:45:25.185Z,853
2023-03-26T16:48:13.041Z,835
2023-03-26T16:51:00.822Z,813
2023-03-26T16:53:48.534Z,788
2023-03-26T16:56:36.166Z,772
2023-03-26T16:59:24.064Z,766
2023-03-26T17:02:27.106Z,790
2023-03-26T17:05:15.066Z,807
2023-03-26T17:08:02.725Z,799
2023-03-26T17:10:57.012Z,781
2023-03-26T17:13:44.872Z,768
2023-03-26T17:16:32.645Z,772
2023-03-26T17:19:20.587Z,774
2023-03-26T17:22:08.356Z,746
2023-03-26T17:24:56.595Z,747
2023-03-26T17:27:44.482Z,726
2023-03-26T17:30:32.523Z,693
2023-03-26T17:33:20.518Z,677
2023-03-26T17:36:08.303Z,655
2023-03-26T17:38:56.049Z,604
2023-03-26T17:41:43.755Z,568
2023-03-26T17:44:33.392Z,525
2023-03-26T17:47:21.241Z,524
2023-03-26T17:50:09.099Z,522
2023-03-26T17:52:56.830Z,537
2023-03-26T17:55:44.618Z,525
2023-03-26T17:58:32.360Z,424
2023-03-26T18:01:32.015Z,316
2023-03-26T18:04:20.182Z,242
2023-03-26T18:07:07.996Z,190
2023-03-26T18:09:55.823Z,166
2023-03-26T18:12:43.657Z,131
2023-03-26T18:15:31.661Z,111
2023-03-26T18:18:19.718Z,87
2023-03-26T18:21:07.633Z,80
2023-03-26T18:23:59.440Z,71
2023-03-26T18:26:48.289Z,66
2023-03-26T18:29:36.145Z,64
2023-03-26T18:32:23.825Z,56
2023-03-26T18:35:11.961Z,32
2023-03-26T18:38:00.079Z,58
2023-03-26T18:40:59.969Z,25
2023-03-26T18:43:47.752Z,80
2023-03-26T18:46:35.638Z,48
2023-03-26T18:49:23.318Z,40
2023-03-26T18:52:11.153Z,43
2023-03-26T18:54:58.805Z,41
2023-03-26T18:57:46.572Z,42
2023-03-26T19:00:34.554Z,41
2023-03-26T19:03:22.692Z,29
2023-03-26T19:06:10.606Z,40
2023-03-26T19:08:58.375Z,38
2023-03-26T19:11:52.298Z,36
2023-03-26T19:14:40.130Z,36
2023-03-26T19:17:28.048Z,34
2023-03-26T19:20:16.062Z,30
2023-03-26T19:23:03.743Z,32
2023-03-26T19:25:51.495Z,31
2023-03-26T19:28:39.275Z,20
2023-03-26T19:31:27.037Z,22
2023-03-26T19:34:14.775Z,28
2023-03-26T19:37:02.551Z,26
2023-03-26T19:39:50.239Z,29
2023-03-26T19:42:43.541Z,33
2023-03-26T19:45:31.816Z,34
2023-03-26T19:48:20.971Z,32
2023-03-26T19:51:33.494Z,28
2023-03-26T19:54:21.261Z,29
2023-03-26T20:27:39.008Z,30
2023-03-26T20:30:37.221Z,22
2023-03-26T20:33:25.532Z,31
2023-03-26T20:36:13.471Z,31
2023-03-26T20:39:01.428Z,25
2023-03-26T20:41:49.108Z,30
2023-03-26T20:44:37.079Z,31
2023-03-26T20:47:24.920Z,30
2023-03-26T20:50:12.762Z,31
2023-03-26T20:53:10.333Z,24
2023-03-26T20:55:58.206Z,29
2023-03-26T20:58:45.901Z,25
2023-03-26T21:01:33.931Z,25
2023-03-26T21:04:21.864Z,29
2023-03-26T21:07:17.456Z,21
2023-03-26T21:10:05.879Z,35
2023-03-26T21:12:53.625Z,20
2023-03-26T21:15:41.242Z,16
2023-03-26T21:18:29.047Z,27
2023-03-26T21:21:20.963Z,26
2023-03-26T21:24:09.150Z,30
2023-03-26T21:26:56.876Z,28
2023-03-26T21:29:44.611Z,23
2023-03-26T21:32:32.357Z,20
2023-03-26T21:35:20.568Z,27
2023-03-26T21:38:08.707Z,44
2023-03-26T21:40:58.761Z,28
2023-03-26T21:43:46.752Z,20
2023-03-26T21:46:34.537Z,25
2023-03-26T21:49:22.266Z,23
2023-03-26T21:52:11.989Z,19
2023-03-26T21:55:00.242Z,31
2023-03-26T21:57:47.987Z,22
2023-03-26T22:00:43.012Z,25
2023-03-26T22:03:31.848Z,24
2023-03-26T22:06:19.925Z,23
2023-03-26T22:09:07.828Z,24
2023-03-26T22:11:56.073Z,21
2023-03-26T22:14:43.890Z,33
2023-03-26T22:17:31.583Z,28
2023-03-26T22:20:22.530Z,20
2023-03-26T22:23:10.240Z,21
2023-03-26T22:25:58.220Z,24
2023-03-26T22:28:45.930Z,28
2023-03-26T22:31:33.775Z,19
2023-03-26T22:34:21.502Z,16
2023-03-26T22:37:09.179Z,24
2023-03-26T22:39:56.847Z,21
2023-03-26T22:42:44.563Z,21
2023-03-26T22:45:32.377Z,24
2023-03-26T22:48:20.204Z,21
2023-03-26T22:51:07.861Z,12
2023-03-26T22:53:55.467Z,23
2023-03-26T22:56:43.208Z,21
2023-03-26T22:59:31.115Z,27
2023-03-26T23:02:18.896Z,20
2023-03-26T23:05:07.008Z,20
2023-03-26T23:07:54.694Z,20
2023-03-26T23:10:42.525Z,21
2023-03-26T23:13:30.257Z,20
2023-03-26T23:16:18.235Z,21
2023-03-26T23:19:06.023Z,28
2023-03-26T23:21:53.708Z,24
2023-03-26T23:24:41.368Z,23
2023-03-26T23:27:29.131Z,22
2023-03-26T23:30:16.859Z,26
2023-03-26T23:33:04.728Z,22
2023-03-26T23:35:52.468Z,17
2023-03-26T23:38:43.266Z,28
2023-03-26T23:41:32.441Z,20
2023-03-26T23:44:20.231Z,25
2023-03-26T23:47:07.908Z,18
2023-03-26T23:49:55.917Z,21
2023-03-26T23:52:43.666Z,24
2023-03-26T23:55:31.661Z,25
2023-03-26T23:58:19.449Z,22
